sensor_id;sensor_type;location;lat;lon;timestamp;P1;durP1;ratioP1;P2;durP2;ratioP2
57832;SDS011;43667;53.036;6.740;2023-10-19T00:00:36;23.75;;;18.30;;
57832;SDS011;43667;53.036;6.740;2023-10-19T00:03:09;22.70;;;18.33;;
57832;SDS011;43667;53.036;6.740;2023-10-19T00:05:36;24.52;;;18.73;;
57832;SDS011;43667;53.036;6.740;2023-10-19T00:08:02;22.95;;;18.90;;
57832;SDS011;43667;53.036;6.740;2023-10-19T00:10:39;24.25;;;18.55;;
57832;SDS011;43667;53.036;6.740;2023-10-19T00:13:09;23.75;;;18.60;;
57832;SDS011;43667;53.036;6.740;2023-10-19T00:15:40;29.25;;;20.95;;
57832;SDS011;43667;53.036;6.740;2023-10-19T00:18:15;24.48;;;19.92;;
57832;SDS011;43667;53.036;6.740;2023-10-19T00:20:45;27.42;;;21.63;;
57832;SDS011;43667;53.036;6.740;2023-10-19T00:23:13;24.90;;;20.90;;
57832;SDS011;43667;53.036;6.740;2023-10-19T00:25:41;27.98;;;21.42;;
57832;SDS011;43667;53.036;6.740;2023-10-19T00:28:07;26.05;;;20.98;;
57832;SDS011;43667;53.036;6.740;2023-10-19T00:30:33;27.98;;;21.70;;
57832;SDS011;43667;53.036;6.740;2023-10-19T00:33:02;23.50;;;20.88;;
57832;SDS011;43667;53.036;6.740;2023-10-19T00:35:41;26.45;;;21.25;;
57832;SDS011;43667;53.036;6.740;2023-10-19T00:38:16;29.75;;;23.58;;
57832;SDS011;43667;53.036;6.740;2023-10-19T00:43:35;26.75;;;21.08;;
57832;SDS011;43667;53.036;6.740;2023-10-19T00:46:07;28.13;;;22.92;;
57832;SDS011;43667;53.036;6.740;2023-10-19T00:48:55;30.77;;;22.20;;
57832;SDS011;43667;53.036;6.740;2023-10-19T00:51:56;27.48;;;23.13;;
57832;SDS011;43667;53.036;6.740;2023-10-19T00:54:23;27.83;;;23.10;;
57832;SDS011;43667;53.036;6.740;2023-10-19T00:57:00;33.15;;;24.85;;
57832;SDS011;43667;53.036;6.740;2023-10-19T00:59:36;29.20;;;24.25;;
57832;SDS011;43667;53.036;6.740;2023-10-19T01:02:13;32.88;;;25.52;;
57832;SDS011;43667;53.036;6.740;2023-10-19T01:04:46;28.80;;;24.60;;
57832;SDS011;43667;53.036;6.740;2023-10-19T01:07:31;28.98;;;25.08;;
57832;SDS011;43667;53.036;6.740;2023-10-19T01:10:03;29.98;;;23.50;;
57832;SDS011;43667;53.036;6.740;2023-10-19T01:12:48;33.58;;;26.08;;
57832;SDS011;43667;53.036;6.740;2023-10-19T01:15:18;31.17;;;25.90;;
57832;SDS011;43667;53.036;6.740;2023-10-19T01:17:57;32.60;;;25.42;;
57832;SDS011;43667;53.036;6.740;2023-10-19T01:20:27;34.72;;;27.30;;
57832;SDS011;43667;53.036;6.740;2023-10-19T01:23:01;34.90;;;25.88;;
57832;SDS011;43667;53.036;6.740;2023-10-19T01:31:08;33.78;;;26.50;;
57832;SDS011;43667;53.036;6.740;2023-10-19T01:33:42;31.88;;;26.98;;
57832;SDS011;43667;53.036;6.740;2023-10-19T01:36:09;38.13;;;26.98;;
57832;SDS011;43667;53.036;6.740;2023-10-19T01:38:48;36.05;;;27.08;;
57832;SDS011;43667;53.036;6.740;2023-10-19T01:41:14;37.17;;;28.58;;
57832;SDS011;43667;53.036;6.740;2023-10-19T01:43:43;33.88;;;26.48;;
57832;SDS011;43667;53.036;6.740;2023-10-19T01:46:11;35.65;;;27.73;;
57832;SDS011;43667;53.036;6.740;2023-10-19T01:48:38;37.90;;;29.38;;
57832;SDS011;43667;53.036;6.740;2023-10-19T01:51:09;35.15;;;27.85;;
57832;SDS011;43667;53.036;6.740;2023-10-19T01:53:36;37.83;;;28.88;;
57832;SDS011;43667;53.036;6.740;2023-10-19T01:56:05;39.45;;;28.13;;
57832;SDS011;43667;53.036;6.740;2023-10-19T01:58:34;41.03;;;29.33;;
57832;SDS011;43667;53.036;6.740;2023-10-19T02:01:02;37.55;;;29.60;;
57832;SDS011;43667;53.036;6.740;2023-10-19T02:03:33;37.88;;;28.77;;
57832;SDS011;43667;53.036;6.740;2023-10-19T02:06:00;38.95;;;28.70;;
57832;SDS011;43667;53.036;6.740;2023-10-19T02:08:35;33.75;;;28.23;;
57832;SDS011;43667;53.036;6.740;2023-10-19T02:11:04;35.95;;;29.33;;
57832;SDS011;43667;53.036;6.740;2023-10-19T02:13:38;39.17;;;30.17;;
57832;SDS011;43667;53.036;6.740;2023-10-19T02:16:04;36.17;;;29.90;;
57832;SDS011;43667;53.036;6.740;2023-10-19T02:18:31;44.05;;;31.70;;
57832;SDS011;43667;53.036;6.740;2023-10-19T02:20:59;36.33;;;29.02;;
57832;SDS011;43667;53.036;6.740;2023-10-19T02:23:31;35.70;;;27.67;;
57832;SDS011;43667;53.036;6.740;2023-10-19T02:25:59;37.17;;;28.80;;
57832;SDS011;43667;53.036;6.740;2023-10-19T02:28:25;37.08;;;28.48;;
57832;SDS011;43667;53.036;6.740;2023-10-19T02:30:56;37.33;;;27.58;;
57832;SDS011;43667;53.036;6.740;2023-10-19T02:33:22;37.60;;;28.50;;
57832;SDS011;43667;53.036;6.740;2023-10-19T02:35:47;35.63;;;27.33;;
57832;SDS011;43667;53.036;6.740;2023-10-19T02:38:13;37.47;;;27.85;;
57832;SDS011;43667;53.036;6.740;2023-10-19T02:40:39;38.22;;;28.35;;
57832;SDS011;43667;53.036;6.740;2023-10-19T02:43:04;33.70;;;26.88;;
57832;SDS011;43667;53.036;6.740;2023-10-19T02:45:30;32.80;;;26.85;;
57832;SDS011;43667;53.036;6.740;2023-10-19T02:47:57;34.75;;;27.92;;
57832;SDS011;43667;53.036;6.740;2023-10-19T02:50:23;35.70;;;27.98;;
57832;SDS011;43667;53.036;6.740;2023-10-19T02:52:51;38.08;;;28.45;;
57832;SDS011;43667;53.036;6.740;2023-10-19T02:55:18;39.33;;;28.48;;
57832;SDS011;43667;53.036;6.740;2023-10-19T02:57:48;39.90;;;29.33;;
57832;SDS011;43667;53.036;6.740;2023-10-19T03:00:15;38.35;;;29.05;;
57832;SDS011;43667;53.036;6.740;2023-10-19T03:02:44;39.42;;;29.15;;
57832;SDS011;43667;53.036;6.740;2023-10-19T03:05:10;39.00;;;28.05;;
57832;SDS011;43667;53.036;6.740;2023-10-19T03:07:42;37.42;;;27.83;;
57832;SDS011;43667;53.036;6.740;2023-10-19T03:10:09;36.90;;;29.17;;
57832;SDS011;43667;53.036;6.740;2023-10-19T03:12:52;35.80;;;27.05;;
57832;SDS011;43667;53.036;6.740;2023-10-19T03:15:18;37.05;;;27.33;;
57832;SDS011;43667;53.036;6.740;2023-10-19T03:17:46;34.65;;;26.10;;
57832;SDS011;43667;53.036;6.740;2023-10-19T03:20:13;36.22;;;26.15;;
57832;SDS011;43667;53.036;6.740;2023-10-19T03:22:42;35.72;;;26.60;;
57832;SDS011;43667;53.036;6.740;2023-10-19T03:25:11;31.20;;;24.90;;
57832;SDS011;43667;53.036;6.740;2023-10-19T03:27:57;32.42;;;24.55;;
57832;SDS011;43667;53.036;6.740;2023-10-19T03:32:56;34.13;;;24.92;;
57832;SDS011;43667;53.036;6.740;2023-10-19T03:35:24;31.27;;;22.88;;
57832;SDS011;43667;53.036;6.740;2023-10-19T03:37:50;31.10;;;24.13;;
57832;SDS011;43667;53.036;6.740;2023-10-19T03:40:16;33.35;;;24.98;;
57832;SDS011;43667;53.036;6.740;2023-10-19T03:42:52;31.95;;;23.55;;
57832;SDS011;43667;53.036;6.740;2023-10-19T03:45:19;34.78;;;23.48;;
57832;SDS011;43667;53.036;6.740;2023-10-19T03:47:49;31.38;;;24.20;;
57832;SDS011;43667;53.036;6.740;2023-10-19T03:50:15;32.95;;;24.85;;
57832;SDS011;43667;53.036;6.740;2023-10-19T03:52:45;30.38;;;23.80;;
57832;SDS011;43667;53.036;6.740;2023-10-19T03:55:11;33.28;;;24.48;;
57832;SDS011;43667;53.036;6.740;2023-10-19T03:57:40;33.78;;;24.65;;
57832;SDS011;43667;53.036;6.740;2023-10-19T04:00:15;38.17;;;24.65;;
57832;SDS011;43667;53.036;6.740;2023-10-19T04:02:44;34.05;;;24.30;;
57832;SDS011;43667;53.036;6.740;2023-10-19T04:05:12;34.00;;;23.42;;
57832;SDS011;43667;53.036;6.740;2023-10-19T04:07:40;30.83;;;23.38;;
57832;SDS011;43667;53.036;6.740;2023-10-19T04:10:07;32.83;;;24.08;;
57832;SDS011;43667;53.036;6.740;2023-10-19T04:12:33;33.88;;;24.35;;
57832;SDS011;43667;53.036;6.740;2023-10-19T04:15:09;33.20;;;23.92;;
57832;SDS011;43667;53.036;6.740;2023-10-19T04:17:35;31.15;;;23.98;;
57832;SDS011;43667;53.036;6.740;2023-10-19T04:20:01;29.42;;;22.17;;
57832;SDS011;43667;53.036;6.740;2023-10-19T04:22:38;33.50;;;22.63;;
57832;SDS011;43667;53.036;6.740;2023-10-19T04:25:05;28.83;;;21.90;;
57832;SDS011;43667;53.036;6.740;2023-10-19T04:27:31;31.70;;;22.80;;
57832;SDS011;43667;53.036;6.740;2023-10-19T04:30:00;29.67;;;22.27;;
57832;SDS011;43667;53.036;6.740;2023-10-19T04:32:27;31.33;;;21.55;;
57832;SDS011;43667;53.036;6.740;2023-10-19T04:34:53;25.73;;;21.08;;
57832;SDS011;43667;53.036;6.740;2023-10-19T04:37:19;28.17;;;20.40;;
57832;SDS011;43667;53.036;6.740;2023-10-19T04:39:45;25.75;;;20.10;;
57832;SDS011;43667;53.036;6.740;2023-10-19T04:42:11;28.35;;;21.20;;
57832;SDS011;43667;53.036;6.740;2023-10-19T04:44:37;27.25;;;20.52;;
57832;SDS011;43667;53.036;6.740;2023-10-19T04:47:02;24.30;;;19.48;;
57832;SDS011;43667;53.036;6.740;2023-10-19T04:49:28;27.25;;;20.45;;
57832;SDS011;43667;53.036;6.740;2023-10-19T04:51:54;23.23;;;18.85;;
57832;SDS011;43667;53.036;6.740;2023-10-19T04:54:19;27.40;;;20.02;;
57832;SDS011;43667;53.036;6.740;2023-10-19T04:56:45;20.73;;;17.65;;
57832;SDS011;43667;53.036;6.740;2023-10-19T04:59:10;21.15;;;17.27;;
57832;SDS011;43667;53.036;6.740;2023-10-19T05:01:36;22.38;;;17.23;;
57832;SDS011;43667;53.036;6.740;2023-10-19T05:04:02;20.50;;;16.38;;
57832;SDS011;43667;53.036;6.740;2023-10-19T05:06:28;22.48;;;16.25;;
57832;SDS011;43667;53.036;6.740;2023-10-19T05:08:54;17.73;;;15.02;;
57832;SDS011;43667;53.036;6.740;2023-10-19T05:11:19;22.90;;;16.33;;
57832;SDS011;43667;53.036;6.740;2023-10-19T05:13:45;17.52;;;14.68;;
57832;SDS011;43667;53.036;6.740;2023-10-19T05:16:11;19.42;;;14.32;;
57832;SDS011;43667;53.036;6.740;2023-10-19T05:18:37;18.60;;;14.48;;
57832;SDS011;43667;53.036;6.740;2023-10-19T05:21:02;16.33;;;14.18;;
57832;SDS011;43667;53.036;6.740;2023-10-19T05:23:28;17.00;;;13.40;;
57832;SDS011;43667;53.036;6.740;2023-10-19T05:26:02;20.17;;;14.25;;
57832;SDS011;43667;53.036;6.740;2023-10-19T05:28:29;18.30;;;13.93;;
57832;SDS011;43667;53.036;6.740;2023-10-19T05:30:55;16.70;;;13.88;;
57832;SDS011;43667;53.036;6.740;2023-10-19T05:33:21;19.48;;;14.18;;
57832;SDS011;43667;53.036;6.740;2023-10-19T05:35:48;16.02;;;13.13;;
57832;SDS011;43667;53.036;6.740;2023-10-19T05:38:14;17.67;;;14.10;;
57832;SDS011;43667;53.036;6.740;2023-10-19T05:40:41;20.80;;;14.85;;
57832;SDS011;43667;53.036;6.740;2023-10-19T05:43:08;20.15;;;14.48;;
57832;SDS011;43667;53.036;6.740;2023-10-19T05:45:34;16.88;;;13.25;;
57832;SDS011;43667;53.036;6.740;2023-10-19T05:48:01;15.52;;;12.65;;
57832;SDS011;43667;53.036;6.740;2023-10-19T05:50:29;18.48;;;13.85;;
57832;SDS011;43667;53.036;6.740;2023-10-19T05:52:54;15.50;;;13.15;;
57832;SDS011;43667;53.036;6.740;2023-10-19T05:55:20;16.52;;;12.52;;
57832;SDS011;43667;53.036;6.740;2023-10-19T05:57:46;16.95;;;13.13;;
57832;SDS011;43667;53.036;6.740;2023-10-19T06:00:12;15.88;;;13.10;;
57832;SDS011;43667;53.036;6.740;2023-10-19T06:02:45;14.80;;;13.02;;
57832;SDS011;43667;53.036;6.740;2023-10-19T06:05:15;15.80;;;12.90;;
57832;SDS011;43667;53.036;6.740;2023-10-19T06:07:44;14.68;;;12.13;;
57832;SDS011;43667;53.036;6.740;2023-10-19T06:10:11;15.07;;;12.55;;
57832;SDS011;43667;53.036;6.740;2023-10-19T06:12:41;15.82;;;12.23;;
57832;SDS011;43667;53.036;6.740;2023-10-19T06:15:08;14.93;;;12.23;;
57832;SDS011;43667;53.036;6.740;2023-10-19T06:17:36;14.50;;;12.88;;
57832;SDS011;43667;53.036;6.740;2023-10-19T06:20:04;14.88;;;11.43;;
57832;SDS011;43667;53.036;6.740;2023-10-19T06:22:32;14.98;;;12.02;;
57832;SDS011;43667;53.036;6.740;2023-10-19T06:24:58;17.30;;;12.52;;
57832;SDS011;43667;53.036;6.740;2023-10-19T06:27:24;13.55;;;12.02;;
57832;SDS011;43667;53.036;6.740;2023-10-19T06:29:49;13.65;;;12.05;;
57832;SDS011;43667;53.036;6.740;2023-10-19T06:32:15;14.82;;;11.52;;
57832;SDS011;43667;53.036;6.740;2023-10-19T06:34:40;13.77;;;12.23;;
57832;SDS011;43667;53.036;6.740;2023-10-19T06:37:06;13.02;;;11.20;;
57832;SDS011;43667;53.036;6.740;2023-10-19T06:39:35;15.00;;;11.45;;
57832;SDS011;43667;53.036;6.740;2023-10-19T06:42:05;13.82;;;11.05;;
57832;SDS011;43667;53.036;6.740;2023-10-19T06:44:35;14.00;;;10.85;;
57832;SDS011;43667;53.036;6.740;2023-10-19T06:47:01;16.38;;;11.75;;
57832;SDS011;43667;53.036;6.740;2023-10-19T06:49:29;13.82;;;11.90;;
57832;SDS011;43667;53.036;6.740;2023-10-19T06:51:54;12.98;;;11.43;;
57832;SDS011;43667;53.036;6.740;2023-10-19T06:54:21;13.40;;;10.85;;
57832;SDS011;43667;53.036;6.740;2023-10-19T06:56:47;13.88;;;11.52;;
57832;SDS011;43667;53.036;6.740;2023-10-19T06:59:12;11.88;;;10.57;;
57832;SDS011;43667;53.036;6.740;2023-10-19T07:01:38;11.02;;;9.70;;
57832;SDS011;43667;53.036;6.740;2023-10-19T07:04:03;14.60;;;11.15;;
57832;SDS011;43667;53.036;6.740;2023-10-19T07:06:29;11.85;;;9.80;;
57832;SDS011;43667;53.036;6.740;2023-10-19T07:08:56;10.00;;;8.85;;
57832;SDS011;43667;53.036;6.740;2023-10-19T07:11:21;10.20;;;9.18;;
57832;SDS011;43667;53.036;6.740;2023-10-19T07:13:49;10.45;;;9.40;;
57832;SDS011;43667;53.036;6.740;2023-10-19T07:16:15;10.70;;;9.60;;
57832;SDS011;43667;53.036;6.740;2023-10-19T07:18:41;10.52;;;9.43;;
57832;SDS011;43667;53.036;6.740;2023-10-19T07:21:07;10.18;;;9.18;;
57832;SDS011;43667;53.036;6.740;2023-10-19T07:23:34;13.10;;;10.43;;
57832;SDS011;43667;53.036;6.740;2023-10-19T07:26:03;10.80;;;9.65;;
57832;SDS011;43667;53.036;6.740;2023-10-19T07:28:29;11.25;;;9.05;;
57832;SDS011;43667;53.036;6.740;2023-10-19T07:30:55;10.35;;;9.25;;
57832;SDS011;43667;53.036;6.740;2023-10-19T07:33:21;9.35;;;8.45;;
57832;SDS011;43667;53.036;6.740;2023-10-19T07:35:47;10.55;;;9.45;;
57832;SDS011;43667;53.036;6.740;2023-10-19T07:38:17;9.75;;;8.77;;
57832;SDS011;43667;53.036;6.740;2023-10-19T07:40:46;9.98;;;8.93;;
57832;SDS011;43667;53.036;6.740;2023-10-19T07:43:12;13.32;;;10.02;;
57832;SDS011;43667;53.036;6.740;2023-10-19T07:45:38;11.45;;;9.52;;
57832;SDS011;43667;53.036;6.740;2023-10-19T07:48:04;10.50;;;9.40;;
57832;SDS011;43667;53.036;6.740;2023-10-19T07:50:36;9.98;;;8.98;;
57832;SDS011;43667;53.036;6.740;2023-10-19T07:53:03;9.68;;;8.32;;
57832;SDS011;43667;53.036;6.740;2023-10-19T07:55:29;10.07;;;8.77;;
57832;SDS011;43667;53.036;6.740;2023-10-19T07:57:56;9.68;;;8.77;;
57832;SDS011;43667;53.036;6.740;2023-10-19T08:00:25;10.10;;;9.02;;
57832;SDS011;43667;53.036;6.740;2023-10-19T08:02:51;11.07;;;9.95;;
57832;SDS011;43667;53.036;6.740;2023-10-19T08:05:19;12.35;;;9.88;;
57832;SDS011;43667;53.036;6.740;2023-10-19T08:07:45;10.93;;;9.75;;
57832;SDS011;43667;53.036;6.740;2023-10-19T08:10:19;10.35;;;9.35;;
57832;SDS011;43667;53.036;6.740;2023-10-19T08:12:46;11.18;;;9.95;;
57832;SDS011;43667;53.036;6.740;2023-10-19T08:15:13;9.98;;;8.98;;
57832;SDS011;43667;53.036;6.740;2023-10-19T08:17:44;10.07;;;9.07;;
57832;SDS011;43667;53.036;6.740;2023-10-19T08:20:12;10.32;;;9.27;;
57832;SDS011;43667;53.036;6.740;2023-10-19T08:22:42;9.48;;;8.52;;
57832;SDS011;43667;53.036;6.740;2023-10-19T08:25:09;9.82;;;8.73;;
57832;SDS011;43667;53.036;6.740;2023-10-19T08:27:39;10.52;;;9.07;;
57832;SDS011;43667;53.036;6.740;2023-10-19T08:30:09;10.93;;;9.82;;
57832;SDS011;43667;53.036;6.740;2023-10-19T08:32:38;12.10;;;10.30;;
57832;SDS011;43667;53.036;6.740;2023-10-19T08:35:06;12.10;;;10.50;;
57832;SDS011;43667;53.036;6.740;2023-10-19T08:37:32;10.82;;;9.68;;
57832;SDS011;43667;53.036;6.740;2023-10-19T08:39:59;12.23;;;11.05;;
57832;SDS011;43667;53.036;6.740;2023-10-19T08:42:25;10.80;;;9.80;;
57832;SDS011;43667;53.036;6.740;2023-10-19T08:44:51;11.88;;;10.38;;
57832;SDS011;43667;53.036;6.740;2023-10-19T08:47:17;10.63;;;9.63;;
57832;SDS011;43667;53.036;6.740;2023-10-19T08:49:42;12.05;;;10.80;;
57832;SDS011;43667;53.036;6.740;2023-10-19T08:52:08;11.63;;;10.15;;
57832;SDS011;43667;53.036;6.740;2023-10-19T08:54:34;11.30;;;10.10;;
57832;SDS011;43667;53.036;6.740;2023-10-19T08:57:00;10.65;;;9.65;;
57832;SDS011;43667;53.036;6.740;2023-10-19T08:59:26;11.02;;;9.90;;
57832;SDS011;43667;53.036;6.740;2023-10-19T10:52:03;17.77;;;15.85;;
57832;SDS011;43667;53.036;6.740;2023-10-19T10:54:28;16.63;;;14.98;;
57832;SDS011;43667;53.036;6.740;2023-10-19T10:56:54;17.92;;;14.30;;
57832;SDS011;43667;53.036;6.740;2023-10-19T10:59:20;16.17;;;14.23;;
57832;SDS011;43667;53.036;6.740;2023-10-19T11:01:45;16.80;;;14.82;;
57832;SDS011;43667;53.036;6.740;2023-10-19T11:04:11;13.98;;;12.23;;
57832;SDS011;43667;53.036;6.740;2023-10-19T11:06:50;14.20;;;12.70;;
57832;SDS011;43667;53.036;6.740;2023-10-19T11:09:17;12.80;;;11.43;;
57832;SDS011;43667;53.036;6.740;2023-10-19T11:11:43;11.82;;;10.73;;
57832;SDS011;43667;53.036;6.740;2023-10-19T11:14:15;11.15;;;9.70;;
57832;SDS011;43667;53.036;6.740;2023-10-19T11:16:41;11.60;;;10.50;;
57832;SDS011;43667;53.036;6.740;2023-10-19T11:19:08;11.20;;;9.88;;
57832;SDS011;43667;53.036;6.740;2023-10-19T11:21:35;11.35;;;10.15;;
57832;SDS011;43667;53.036;6.740;2023-10-19T11:24:01;12.13;;;10.30;;
57832;SDS011;43667;53.036;6.740;2023-10-19T11:26:27;12.98;;;10.45;;
57832;SDS011;43667;53.036;6.740;2023-10-19T11:31:26;10.63;;;9.52;;
57832;SDS011;43667;53.036;6.740;2023-10-19T11:33:53;11.15;;;10.07;;
57832;SDS011;43667;53.036;6.740;2023-10-19T11:36:23;11.55;;;10.23;;
57832;SDS011;43667;53.036;6.740;2023-10-19T11:38:50;11.02;;;9.90;;
57832;SDS011;43667;53.036;6.740;2023-10-19T11:41:16;12.65;;;9.88;;
57832;SDS011;43667;53.036;6.740;2023-10-19T11:43:43;15.57;;;10.43;;
57832;SDS011;43667;53.036;6.740;2023-10-19T11:46:10;13.65;;;10.05;;
57832;SDS011;43667;53.036;6.740;2023-10-19T11:48:37;13.82;;;10.75;;
57832;SDS011;43667;53.036;6.740;2023-10-19T11:51:05;12.13;;;9.98;;
57832;SDS011;43667;53.036;6.740;2023-10-19T11:53:31;10.48;;;9.43;;
57832;SDS011;43667;53.036;6.740;2023-10-19T11:56:09;13.73;;;9.27;;
57832;SDS011;43667;53.036;6.740;2023-10-19T11:58:37;11.70;;;10.07;;
57832;SDS011;43667;53.036;6.740;2023-10-19T12:01:05;12.63;;;8.23;;
57832;SDS011;43667;53.036;6.740;2023-10-19T12:03:36;12.57;;;8.15;;
57832;SDS011;43667;53.036;6.740;2023-10-19T12:06:04;9.13;;;7.88;;
57832;SDS011;43667;53.036;6.740;2023-10-19T12:08:31;10.80;;;7.85;;
57832;SDS011;43667;53.036;6.740;2023-10-19T12:10:58;12.10;;;7.90;;
57832;SDS011;43667;53.036;6.740;2023-10-19T12:13:26;9.25;;;7.70;;
57832;SDS011;43667;53.036;6.740;2023-10-19T12:15:53;12.50;;;8.32;;
57832;SDS011;43667;53.036;6.740;2023-10-19T12:18:20;8.45;;;7.55;;
57832;SDS011;43667;53.036;6.740;2023-10-19T12:20:46;9.15;;;8.13;;
57832;SDS011;43667;53.036;6.740;2023-10-19T12:23:13;11.25;;;9.43;;
57832;SDS011;43667;53.036;6.740;2023-10-19T12:25:39;12.80;;;9.50;;
57832;SDS011;43667;53.036;6.740;2023-10-19T12:28:07;14.60;;;10.05;;
57832;SDS011;43667;53.036;6.740;2023-10-19T12:30:37;10.52;;;9.52;;
57832;SDS011;43667;53.036;6.740;2023-10-19T12:33:04;15.40;;;10.73;;
57832;SDS011;43667;53.036;6.740;2023-10-19T12:35:36;12.75;;;11.45;;
57832;SDS011;43667;53.036;6.740;2023-10-19T12:38:22;13.35;;;11.32;;
57832;SDS011;43667;53.036;6.740;2023-10-19T12:40:48;13.05;;;10.98;;
57832;SDS011;43667;53.036;6.740;2023-10-19T12:43:16;15.23;;;11.15;;
57832;SDS011;43667;53.036;6.740;2023-10-19T12:45:50;15.07;;;11.45;;
57832;SDS011;43667;53.036;6.740;2023-10-19T12:48:18;15.05;;;11.13;;
57832;SDS011;43667;53.036;6.740;2023-10-19T12:50:45;13.02;;;10.23;;
57832;SDS011;43667;53.036;6.740;2023-10-19T12:53:12;12.38;;;9.68;;
57832;SDS011;43667;53.036;6.740;2023-10-19T12:55:39;10.07;;;9.00;;
57832;SDS011;43667;53.036;6.740;2023-10-19T12:58:05;8.95;;;7.90;;
57832;SDS011;43667;53.036;6.740;2023-10-19T13:00:34;10.13;;;7.90;;
57832;SDS011;43667;53.036;6.740;2023-10-19T13:03:08;12.07;;;7.45;;
57832;SDS011;43667;53.036;6.740;2023-10-19T13:05:38;11.07;;;7.22;;
57832;SDS011;43667;53.036;6.740;2023-10-19T13:08:05;12.07;;;8.23;;
57832;SDS011;43667;53.036;6.740;2023-10-19T13:10:32;9.77;;;8.77;;
57832;SDS011;43667;53.036;6.740;2023-10-19T13:13:00;9.73;;;8.40;;
57832;SDS011;43667;53.036;6.740;2023-10-19T13:18:03;8.60;;;7.70;;
57832;SDS011;43667;53.036;6.740;2023-10-19T13:20:31;9.73;;;8.10;;
57832;SDS011;43667;53.036;6.740;2023-10-19T13:23:01;11.90;;;8.82;;
57832;SDS011;43667;53.036;6.740;2023-10-19T13:25:32;11.60;;;8.63;;
57832;SDS011;43667;53.036;6.740;2023-10-19T13:28:05;11.50;;;8.45;;
57832;SDS011;43667;53.036;6.740;2023-10-19T13:30:37;11.15;;;9.43;;
57832;SDS011;43667;53.036;6.740;2023-10-19T13:33:04;13.77;;;10.25;;
57832;SDS011;43667;53.036;6.740;2023-10-19T13:35:31;10.73;;;9.73;;
57832;SDS011;43667;53.036;6.740;2023-10-19T13:37:57;11.13;;;9.73;;
57832;SDS011;43667;53.036;6.740;2023-10-19T13:40:23;11.68;;;10.10;;
57832;SDS011;43667;53.036;6.740;2023-10-19T13:42:49;11.88;;;10.38;;
57832;SDS011;43667;53.036;6.740;2023-10-19T13:45:14;15.90;;;10.05;;
57832;SDS011;43667;53.036;6.740;2023-10-19T13:47:40;10.90;;;9.77;;
57832;SDS011;43667;53.036;6.740;2023-10-19T13:50:05;12.48;;;9.77;;
57832;SDS011;43667;53.036;6.740;2023-10-19T13:52:32;12.38;;;10.00;;
57832;SDS011;43667;53.036;6.740;2023-10-19T13:55:00;11.63;;;10.43;;
57832;SDS011;43667;53.036;6.740;2023-10-19T13:57:26;13.90;;;10.88;;
57832;SDS011;43667;53.036;6.740;2023-10-19T13:59:51;13.18;;;10.65;;
57832;SDS011;43667;53.036;6.740;2023-10-19T14:02:18;12.88;;;11.48;;
57832;SDS011;43667;53.036;6.740;2023-10-19T14:04:44;17.25;;;12.35;;
57832;SDS011;43667;53.036;6.740;2023-10-19T14:07:11;16.77;;;13.43;;
57832;SDS011;43667;53.036;6.740;2023-10-19T14:09:36;15.65;;;14.02;;
57832;SDS011;43667;53.036;6.740;2023-10-19T14:12:02;20.38;;;16.17;;
57832;SDS011;43667;53.036;6.740;2023-10-19T14:14:29;20.77;;;17.33;;
57832;SDS011;43667;53.036;6.740;2023-10-19T14:16:55;24.05;;;19.42;;
57832;SDS011;43667;53.036;6.740;2023-10-19T14:19:21;24.17;;;21.30;;
57832;SDS011;43667;53.036;6.740;2023-10-19T14:21:47;29.23;;;21.35;;
57832;SDS011;43667;53.036;6.740;2023-10-19T14:24:13;25.45;;;22.42;;
57832;SDS011;43667;53.036;6.740;2023-10-19T14:26:38;28.98;;;23.02;;
57832;SDS011;43667;53.036;6.740;2023-10-19T14:29:05;27.42;;;22.00;;
57832;SDS011;43667;53.036;6.740;2023-10-19T14:31:31;27.05;;;21.00;;
57832;SDS011;43667;53.036;6.740;2023-10-19T14:33:57;27.55;;;23.02;;
57832;SDS011;43667;53.036;6.740;2023-10-19T14:36:24;30.40;;;24.55;;
57832;SDS011;43667;53.036;6.740;2023-10-19T14:38:50;29.90;;;22.95;;
57832;SDS011;43667;53.036;6.740;2023-10-19T14:41:15;33.10;;;24.00;;
57832;SDS011;43667;53.036;6.740;2023-10-19T14:43:41;27.15;;;22.58;;
57832;SDS011;43667;53.036;6.740;2023-10-19T14:46:07;31.15;;;22.75;;
57832;SDS011;43667;53.036;6.740;2023-10-19T14:48:32;31.48;;;22.52;;
57832;SDS011;43667;53.036;6.740;2023-10-19T14:51:00;29.45;;;22.33;;
57832;SDS011;43667;53.036;6.740;2023-10-19T14:53:26;28.98;;;21.33;;
57832;SDS011;43667;53.036;6.740;2023-10-19T14:55:54;33.28;;;22.05;;
57832;SDS011;43667;53.036;6.740;2023-10-19T14:58:20;27.17;;;20.42;;
57832;SDS011;43667;53.036;6.740;2023-10-19T15:00:46;23.48;;;20.80;;
57832;SDS011;43667;53.036;6.740;2023-10-19T15:03:19;30.77;;;22.00;;
57832;SDS011;43667;53.036;6.740;2023-10-19T15:05:49;28.38;;;23.15;;
57832;SDS011;43667;53.036;6.740;2023-10-19T15:08:16;35.17;;;25.48;;
57832;SDS011;43667;53.036;6.740;2023-10-19T15:10:42;35.20;;;26.30;;
57832;SDS011;43667;53.036;6.740;2023-10-19T15:13:08;40.42;;;28.05;;
57832;SDS011;43667;53.036;6.740;2023-10-19T15:15:33;34.67;;;27.15;;
57832;SDS011;43667;53.036;6.740;2023-10-19T15:17:59;38.80;;;28.42;;
57832;SDS011;43667;53.036;6.740;2023-10-19T15:20:25;39.13;;;27.92;;
57832;SDS011;43667;53.036;6.740;2023-10-19T15:22:52;39.53;;;29.48;;
57832;SDS011;43667;53.036;6.740;2023-10-19T15:25:21;39.78;;;29.35;;
57832;SDS011;43667;53.036;6.740;2023-10-19T15:27:50;40.53;;;28.58;;
57832;SDS011;43667;53.036;6.740;2023-10-19T15:30:16;43.70;;;29.70;;
57832;SDS011;43667;53.036;6.740;2023-10-19T15:32:46;41.88;;;31.50;;
57832;SDS011;43667;53.036;6.740;2023-10-19T15:35:12;41.97;;;29.73;;
57832;SDS011;43667;53.036;6.740;2023-10-19T15:37:40;42.72;;;30.92;;
57832;SDS011;43667;53.036;6.740;2023-10-19T15:40:07;41.00;;;28.40;;
57832;SDS011;43667;53.036;6.740;2023-10-19T15:42:37;41.17;;;27.25;;
57832;SDS011;43667;53.036;6.740;2023-10-19T15:45:06;42.67;;;27.80;;
57832;SDS011;43667;53.036;6.740;2023-10-19T15:47:44;44.60;;;27.35;;
57832;SDS011;43667;53.036;6.740;2023-10-19T15:50:11;45.10;;;29.35;;
57832;SDS011;43667;53.036;6.740;2023-10-19T15:52:37;34.47;;;27.08;;
57832;SDS011;43667;53.036;6.740;2023-10-19T15:55:08;37.25;;;28.10;;
57832;SDS011;43667;53.036;6.740;2023-10-19T15:57:35;42.22;;;27.65;;
57832;SDS011;43667;53.036;6.740;2023-10-19T16:00:01;47.75;;;30.88;;
57832;SDS011;43667;53.036;6.740;2023-10-19T16:02:27;38.95;;;26.77;;
57832;SDS011;43667;53.036;6.740;2023-10-19T16:04:53;39.75;;;26.92;;
57832;SDS011;43667;53.036;6.740;2023-10-19T16:07:18;41.95;;;27.35;;
57832;SDS011;43667;53.036;6.740;2023-10-19T16:09:44;42.95;;;28.90;;
57832;SDS011;43667;53.036;6.740;2023-10-19T16:12:10;43.08;;;28.60;;
57832;SDS011;43667;53.036;6.740;2023-10-19T16:14:37;41.30;;;27.73;;
57832;SDS011;43667;53.036;6.740;2023-10-19T16:17:04;38.63;;;28.30;;
57832;SDS011;43667;53.036;6.740;2023-10-19T16:19:30;36.63;;;26.88;;
57832;SDS011;43667;53.036;6.740;2023-10-19T16:21:59;41.58;;;26.98;;
57832;SDS011;43667;53.036;6.740;2023-10-19T16:24:25;38.83;;;27.30;;
57832;SDS011;43667;53.036;6.740;2023-10-19T16:26:52;43.83;;;26.50;;
57832;SDS011;43667;53.036;6.740;2023-10-19T16:29:18;35.08;;;23.92;;
57832;SDS011;43667;53.036;6.740;2023-10-19T16:31:45;35.65;;;23.05;;
57832;SDS011;43667;53.036;6.740;2023-10-19T16:34:11;37.10;;;23.15;;
57832;SDS011;43667;53.036;6.740;2023-10-19T16:36:38;34.50;;;22.48;;